Time;durP1;ratioP1;P1;durP2;ratioP2;P2;SDS_P1;SDS_P2;PMS_P1;PMS_P2;Temp;Humidity;BMP_temperature;BMP_pressure;BME280_temperature;BME280_humidity;BME280_pressure;Samples;Min_cycle;Max_cycle;Signal;HPM_P1;HPM_P2
2021/08/23 00:00:46;;;;;;;4.22;2.10;;;16.40;99.90;;;;;;5095746;28;20023;-90
2021/08/23 00:03:12;;;;;;;5.00;2.20;;;16.20;99.90;;;;;;5077163;28;20030;-91
2021/08/23 00:05:38;;;;;;;6.22;1.83;;;16.30;99.90;;;;;;5095444;28;20016;-91
2021/08/23 00:08:03;;;;;;;6.60;2.35;;;16.30;99.90;;;;;;5076460;28;20048;-90
2021/08/23 00:10:29;;;;;;;2.95;1.80;;;16.20;99.90;;;;;;5077577;28;20028;-90
2021/08/23 00:12:55;;;;;;;8.32;2.13;;;16.40;99.90;;;;;;5078216;28;20480;-90
2021/08/23 00:15:20;;;;;;;6.57;1.63;;;16.40;99.90;;;;;;5081458;28;20028;-89
2021/08/23 00:17:46;;;;;;;3.80;2.17;;;16.40;99.90;;;;;;5101335;28;20020;-89
2021/08/23 00:20:16;;;;;;;7.38;1.88;;;16.40;99.90;;;;;;5099269;28;20073;-90
2021/08/23 00:22:50;;;;;;;5.78;1.88;;;16.50;99.90;;;;;;5079298;28;20396;-90
2021/08/23 00:25:17;;;;;;;6.43;2.08;;;16.70;99.90;;;;;;5079357;28;20402;-90
2021/08/23 00:27:43;;;;;;;7.05;2.08;;;16.70;99.90;;;;;;5077363;28;20027;-90
2021/08/23 00:30:11;;;;;;;4.38;1.88;;;16.80;99.90;;;;;;5076726;28;20028;-90
2021/08/23 00:32:37;;;;;;;5.03;1.80;;;17.00;99.90;;;;;;5076808;28;20024;-90
2021/08/23 00:35:03;;;;;;;8.80;2.05;;;17.10;99.90;;;;;;5076861;28;20024;-90
2021/08/23 00:37:29;;;;;;;5.18;2.00;;;17.00;99.90;;;;;;5076642;28;20476;-90
2021/08/23 00:39:54;;;;;;;4.57;1.77;;;17.10;99.90;;;;;;5076600;28;20076;-90
2021/08/23 00:42:20;;;;;;;6.57;1.75;;;17.00;99.90;;;;;;5094655;28;20407;-90
2021/08/23 00:44:46;;;;;;;3.75;1.73;;;17.00;99.90;;;;;;5094720;28;20073;-90
2021/08/23 00:47:12;;;;;;;9.02;1.95;;;17.00;99.90;;;;;;5076598;28;20031;-90
2021/08/23 00:49:39;;;;;;;3.72;1.80;;;16.90;99.90;;;;;;5094498;28;20491;-90
2021/08/23 00:52:06;;;;;;;3.00;1.80;;;16.80;99.90;;;;;;5076792;28;20502;-90
2021/08/23 00:54:34;;;;;;;5.70;1.73;;;16.80;99.90;;;;;;5076145;28;20095;-90
2021/08/23 00:57:00;;;;;;;6.32;1.90;;;16.70;99.90;;;;;;5094341;28;20048;-90
2021/08/23 00:59:27;;;;;;;6.97;1.63;;;16.70;99.90;;;;;;5076224;28;20024;-89
2021/08/23 01:02:08;;;;;;;5.15;1.75;;;16.50;99.90;;;;;;5076253;28;20032;-90
2021/08/23 01:04:48;;;;;;;3.75;1.90;;;16.50;99.90;;;;;;5075951;28;20040;-90
2021/08/23 01:07:16;;;;;;;3.75;1.85;;;16.60;99.90;;;;;;5076048;28;20484;-90
2021/08/23 01:09:48;;;;;;;5.15;1.90;;;16.80;99.90;;;;;;5076345;28;20027;-89
2021/08/23 01:12:14;;;;;;;3.92;1.92;;;16.90;99.90;;;;;;5075954;28;20024;-90
2021/08/23 01:14:41;;;;;;;5.60;1.92;;;16.90;99.90;;;;;;5075951;28;20016;-89
2021/08/23 01:17:07;;;;;;;5.65;1.67;;;17.00;99.90;;;;;;5075754;28;20032;-90
2021/08/23 01:19:34;;;;;;;4.97;2.20;;;16.90;99.90;;;;;;5093629;28;20070;-90
2021/08/23 01:22:02;;;;;;;4.72;1.52;;;16.90;99.90;;;;;;5075836;28;20035;-89
2021/08/23 01:24:34;;;;;;;4.47;1.90;;;17.00;99.90;;;;;;5075782;28;20024;-90
2021/08/23 01:27:03;;;;;;;3.00;1.83;;;16.90;99.90;;;;;;5075639;28;20395;-89
2021/08/23 01:29:51;;;;;;;4.68;1.58;;;17.00;99.90;;;;;;5093743;28;20050;-90
2021/08/23 01:32:22;;;;;;;5.82;2.05;;;17.00;99.90;;;;;;5075580;28;20073;-90
2021/08/23 01:34:49;;;;;;;3.67;1.80;;;16.90;99.90;;;;;;5075562;28;20024;-90
2021/08/23 01:37:17;;;;;;;7.75;2.10;;;16.90;99.90;;;;;;5075499;28;20020;-89
2021/08/23 01:39:43;;;;;;;4.57;1.83;;;16.90;99.90;;;;;;5075505;28;20020;-90
2021/08/23 01:42:10;;;;;;;8.70;2.05;;;17.00;99.90;;;;;;5075738;28;20024;-89
2021/08/23 01:44:36;;;;;;;5.88;1.95;;;16.90;99.90;;;;;;5093689;28;20024;-89
2021/08/23 01:47:01;;;;;;;3.53;1.73;;;16.80;99.90;;;;;;5075561;28;20035;-89
2021/08/23 01:49:27;;;;;;;5.95;1.88;;;16.60;99.90;;;;;;5075288;28;20024;-89
2021/08/23 01:51:53;;;;;;;5.35;2.00;;;16.80;99.90;;;;;;5065868;28;20408;-89
2021/08/23 01:54:19;;;;;;;5.85;1.98;;;16.80;99.90;;;;;;5052053;28;20035;-89
2021/08/23 01:56:45;;;;;;;3.80;1.50;;;16.90;99.90;;;;;;5053270;28;20100;-89
2021/08/23 01:59:11;;;;;;;5.18;1.60;;;16.90;99.90;;;;;;5051881;28;20079;-90
2021/08/23 02:01:36;;;;;;;7.43;1.83;;;16.80;99.90;;;;;;5052026;28;20025;-89
2021/08/23 02:04:03;;;;;;;3.70;1.75;;;16.70;99.90;;;;;;5051866;28;20496;-89
2021/08/23 02:06:29;;;;;;;5.05;1.85;;;16.60;99.90;;;;;;5051887;28;20037;-89
2021/08/23 02:08:55;;;;;;;5.53;1.70;;;16.70;99.90;;;;;;5051947;28;20025;-89
2021/08/23 02:11:24;;;;;;;2.53;1.60;;;16.50;99.90;;;;;;5051936;28;20507;-89
2021/08/23 02:13:50;;;;;;;6.28;1.70;;;16.30;99.90;;;;;;5053208;28;20095;-90
2021/08/23 02:16:16;;;;;;;10.82;1.80;;;16.20;99.90;;;;;;5051896;28;20025;-90
2021/08/23 02:18:41;;;;;;;5.57;2.05;;;16.20;99.90;;;;;;5051959;28;20048;-90
2021/08/23 02:21:07;;;;;;;4.97;2.00;;;16.00;99.90;;;;;;5052206;28;20033;-90
2021/08/23 02:23:33;;;;;;;6.22;1.80;;;16.10;99.90;;;;;;5052656;28;20114;-90
2021/08/23 02:25:59;;;;;;;8.18;2.17;;;16.10;99.90;;;;;;5054491;28;20124;-89
2021/08/23 02:28:25;;;;;;;5.28;2.00;;;16.10;99.90;;;;;;5071193;28;20072;-89
2021/08/23 02:30:51;;;;;;;9.27;1.80;;;16.10;99.90;;;;;;5077157;28;20028;-88
2021/08/23 02:33:16;;;;;;;6.18;1.85;;;16.10;99.90;;;;;;5062253;28;20037;-89
2021/08/23 02:35:42;;;;;;;5.22;1.90;;;16.40;99.90;;;;;;5057034;28;20025;-90
2021/08/23 02:38:08;;;;;;;3.55;1.88;;;16.40;99.90;;;;;;5055900;28;20086;-90
2021/08/23 02:40:34;;;;;;;5.15;2.00;;;16.40;99.90;;;;;;5055475;28;20087;-89
2021/08/23 02:43:01;;;;;;;3.47;1.63;;;16.30;99.90;;;;;;5055331;28;20029;-90
2021/08/23 02:45:26;;;;;;;4.38;1.58;;;16.20;99.90;;;;;;5055323;28;20032;-89
2021/08/23 02:47:52;;;;;;;4.20;1.80;;;16.30;99.90;;;;;;5056312;28;20445;-90
2021/08/23 02:50:18;;;;;;;4.30;2.00;;;16.40;99.90;;;;;;5056433;28;20021;-89
2021/08/23 02:52:44;;;;;;;4.60;1.80;;;16.60;99.90;;;;;;5054837;28;20044;-89
2021/08/23 02:55:11;;;;;;;4.05;1.83;;;16.60;99.90;;;;;;5055097;28;20388;-90
2021/08/23 02:57:36;;;;;;;6.43;1.88;;;16.80;99.90;;;;;;5054854;28;20021;-89
2021/08/23 03:00:05;;;;;;;5.65;1.50;;;16.60;99.90;;;;;;5056268;28;20070;-89
2021/08/23 03:02:31;;;;;;;3.22;1.60;;;16.80;99.90;;;;;;5054756;28;20507;-89
2021/08/23 03:04:57;;;;;;;7.43;1.60;;;16.80;99.90;;;;;;5054826;28;20021;-89
2021/08/23 03:07:22;;;;;;;1.83;1.38;;;16.80;99.90;;;;;;5054744;28;20090;-89
2021/08/23 03:09:48;;;;;;;5.63;1.73;;;16.90;99.90;;;;;;5054659;28;20385;-89
2021/08/23 03:12:15;;;;;;;8.13;1.70;;;16.80;99.90;;;;;;5054860;28;20117;-89
2021/08/23 03:14:41;;;;;;;5.97;1.65;;;16.70;99.90;;;;;;5054676;28;20025;-89
2021/08/23 03:17:06;;;;;;;5.47;1.58;;;16.70;99.90;;;;;;5054575;28;20388;-89
2021/08/23 03:19:32;;;;;;;4.30;1.60;;;16.60;99.90;;;;;;5055865;28;20021;-89
2021/08/23 03:21:58;;;;;;;5.22;1.77;;;16.80;99.90;;;;;;5054442;28;20035;-89
2021/08/23 03:24:24;;;;;;;3.08;1.63;;;16.80;99.90;;;;;;5054523;28;20112;-88
2021/08/23 03:26:50;;;;;;;5.53;2.10;;;16.80;99.90;;;;;;5054361;28;20075;-89
2021/08/23 03:29:15;;;;;;;6.30;1.80;;;16.80;99.90;;;;;;5054262;28;20120;-88
2021/08/23 03:31:42;;;;;;;3.95;1.65;;;16.80;99.90;;;;;;5054155;28;20052;-89
2021/08/23 03:34:12;;;;;;;5.70;1.90;;;16.70;99.90;;;;;;5054253;28;20052;-88
2021/08/23 03:36:39;;;;;;;3.97;1.73;;;16.70;99.90;;;;;;5054070;28;20021;-89
2021/08/23 03:39:04;;;;;;;3.13;1.73;;;16.80;99.90;;;;;;5054213;28;20052;-89
2021/08/23 03:41:30;;;;;;;3.20;1.60;;;16.90;99.90;;;;;;5053919;28;20025;-89
2021/08/23 03:43:56;;;;;;;4.47;1.70;;;16.90;99.90;;;;;;5054152;28;20093;-89
2021/08/23 03:46:21;;;;;;;4.30;1.63;;;16.90;99.90;;;;;;5054052;28;20025;-89
2021/08/23 03:48:47;;;;;;;4.05;1.48;;;16.80;99.90;;;;;;5055155;28;20029;-89
2021/08/23 03:51:13;;;;;;;5.22;1.63;;;16.80;99.90;;;;;;5054079;28;20489;-89
2021/08/23 03:53:38;;;;;;;6.97;1.40;;;16.60;99.90;;;;;;5077339;28;20016;-89
2021/08/23 03:56:04;;;;;;;4.53;1.60;;;16.60;99.90;;;;;;5077221;28;20020;-90
2021/08/23 03:58:30;;;;;;;6.00;1.48;;;16.70;99.90;;;;;;5095171;28;20043;-89
2021/08/23 04:00:58;;;;;;;5.72;1.92;;;16.70;99.90;;;;;;5076964;28;20020;-89
2021/08/23 04:03:24;;;;;;;7.32;2.08;;;16.80;99.90;;;;;;5077065;28;20076;-89
2021/08/23 04:05:49;;;;;;;6.45;1.80;;;16.70;99.90;;;;;;5077000;28;20107;-89
2021/08/23 04:08:15;;;;;;;6.50;2.30;;;16.60;99.90;;;;;;5077039;28;20028;-89
2021/08/23 04:10:41;;;;;;;5.18;1.95;;;16.60;99.90;;;;;;5077708;28;20085;-89
2021/08/23 04:13:06;;;;;;;2.58;1.70;;;16.60;99.90;;;;;;5077032;28;20515;-89
2021/08/23 04:15:32;;;;;;;6.25;1.70;;;16.60;99.90;;;;;;5076753;28;20087;-89
2021/08/23 04:17:59;;;;;;;2.97;1.90;;;16.60;99.90;;;;;;5076942;28;20024;-89
2021/08/23 04:20:25;;;;;;;4.05;1.45;;;16.50;99.90;;;;;;5076803;28;20035;-89
2021/08/23 04:22:50;;;;;;;3.90;2.10;;;16.50;99.90;;;;;;5076649;28;20126;-89
2021/08/23 04:25:16;;;;;;;4.30;2.00;;;16.70;99.90;;;;;;5076937;28;20028;-89
2021/08/23 04:27:42;;;;;;;6.82;1.80;;;16.80;99.90;;;;;;5077051;28;20024;-89
2021/08/23 04:30:08;;;;;;;5.55;2.10;;;16.80;99.90;;;;;;5076555;28;20114;-89
2021/08/23 04:32:34;;;;;;;3.15;1.83;;;16.70;99.90;;;;;;5076396;28;20510;-89
2021/08/23 04:35:00;;;;;;;2.45;1.50;;;16.60;99.90;;;;;;5077101;28;20084;-89
2021/08/23 04:37:25;;;;;;;3.03;1.60;;;16.70;99.90;;;;;;5077709;28;20034;-89
2021/08/23 04:39:51;;;;;;;6.95;2.15;;;16.70;99.90;;;;;;5097103;28;20032;-89
2021/08/23 04:42:17;;;;;;;3.25;1.63;;;16.70;99.90;;;;;;5101436;28;20087;-89
2021/08/23 04:44:44;;;;;;;5.32;1.85;;;16.60;99.90;;;;;;5080723;28;20033;-89
2021/08/23 04:47:10;;;;;;;5.00;1.98;;;16.60;99.90;;;;;;5077119;28;20023;-89
2021/08/23 04:49:37;;;;;;;2.50;1.92;;;16.40;99.90;;;;;;5076526;28;20447;-89
2021/08/23 04:52:03;;;;;;;5.95;2.00;;;16.30;99.90;;;;;;5094587;28;20051;-89
2021/08/23 04:54:28;;;;;;;7.60;1.88;;;16.10;99.90;;;;;;5075984;28;20022;-90
2021/08/23 04:56:54;;;;;;;6.35;2.00;;;16.10;99.90;;;;;;5076349;28;20017;-89
2021/08/23 04:59:20;;;;;;;8.13;1.90;;;16.20;99.90;;;;;;5094444;28;20476;-90
2021/08/23 05:01:45;;;;;;;4.82;1.90;;;16.10;99.90;;;;;;5076126;28;20027;-89
2021/08/23 05:04:11;;;;;;;7.10;1.85;;;16.20;99.90;;;;;;5076627;28;20081;-89
2021/08/23 05:06:37;;;;;;;6.35;1.58;;;16.20;99.90;;;;;;5075929;28;20082;-89
2021/08/23 05:09:02;;;;;;;9.05;1.75;;;16.30;99.90;;;;;;5075969;28;20020;-89
2021/08/23 05:11:29;;;;;;;5.63;1.90;;;16.40;99.90;;;;;;5075793;28;20020;-89
2021/08/23 05:13:55;;;;;;;6.32;1.45;;;16.40;99.90;;;;;;5075981;28;20020;-89
2021/08/23 05:16:20;;;;;;;5.47;2.00;;;16.40;99.90;;;;;;5075917;28;20031;-89
2021/08/23 05:18:46;;;;;;;6.50;1.80;;;16.30;99.90;;;;;;5075928;28;20035;-89
2021/08/23 05:21:12;;;;;;;3.28;1.70;;;16.40;99.90;;;;;;5075890;28;20020;-90
2021/08/23 05:23:38;;;;;;;4.93;1.77;;;16.50;99.90;;;;;;5076549;28;20020;-90
2021/08/23 05:26:08;;;;;;;4.13;1.85;;;16.50;99.90;;;;;;5075980;28;20104;-89
2021/08/23 05:28:34;;;;;;;4.93;1.70;;;16.50;99.90;;;;;;5075684;28;20043;-89
2021/08/23 05:30:59;;;;;;;4.95;2.13;;;16.40;99.90;;;;;;5093621;28;20495;-89
2021/08/23 05:33:25;;;;;;;4.78;2.15;;;16.40;99.90;;;;;;5075634;28;20495;-89
2021/08/23 05:35:51;;;;;;;5.75;2.03;;;16.40;99.90;;;;;;5075703;28;20100;-90
2021/08/23 05:38:16;;;;;;;4.00;1.63;;;16.30;99.90;;;;;;5075626;28;20021;-89
2021/08/23 05:40:42;;;;;;;8.82;2.10;;;16.30;99.90;;;;;;5075816;28;20031;-89
2021/08/23 05:43:08;;;;;;;8.07;2.17;;;16.40;99.90;;;;;;5075548;28;20028;-89
2021/08/23 05:45:34;;;;;;;7.75;2.10;;;16.60;99.90;;;;;;5075589;28;20499;-89
2021/08/23 05:47:59;;;;;;;4.47;1.85;;;16.60;99.90;;;;;;5093559;28;20111;-90
2021/08/23 05:50:25;;;;;;;5.45;1.80;;;16.60;99.90;;;;;;5075447;28;20020;-89
2021/08/23 05:52:51;;;;;;;4.35;1.65;;;16.60;99.90;;;;;;5075170;28;20058;-89
2021/08/23 05:55:17;;;;;;;5.50;1.77;;;16.80;99.90;;;;;;5075287;28;20495;-89
2021/08/23 05:57:42;;;;;;;5.80;1.50;;;16.80;99.90;;;;;;5093420;28;20023;-89
2021/08/23 06:00:09;;;;;;;4.65;1.95;;;16.60;99.90;;;;;;5076395;28;20028;-89
2021/08/23 06:02:35;;;;;;;5.15;1.85;;;16.60;99.90;;;;;;5075180;28;20073;-89
2021/08/23 06:05:00;;;;;;;3.50;1.50;;;16.80;99.90;;;;;;5075650;28;20024;-89
2021/08/23 06:07:26;;;;;;;6.10;2.00;;;16.90;99.90;;;;;;5079233;28;20028;-89
2021/08/23 06:09:52;;;;;;;6.30;1.92;;;17.00;99.90;;;;;;5079453;28;20024;-89
2021/08/23 06:12:18;;;;;;;3.65;1.83;;;17.00;99.90;;;;;;5080334;28;20127;-89
2021/08/23 06:14:43;;;;;;;3.50;2.00;;;17.10;99.90;;;;;;5079357;28;20024;-89
2021/08/23 06:17:09;;;;;;;4.90;1.67;;;17.00;99.90;;;;;;5097177;28;20499;-89
2021/08/23 06:19:35;;;;;;;6.65;1.70;;;17.10;99.90;;;;;;5079054;28;20016;-89
2021/08/23 06:22:01;;;;;;;4.40;1.60;;;17.20;99.90;;;;;;5097245;28;20028;-89
2021/08/23 06:24:27;;;;;;;11.15;1.92;;;17.20;99.90;;;;;;5078985;28;20024;-89
2021/08/23 06:26:53;;;;;;;5.53;1.60;;;17.30;99.90;;;;;;5079029;28;20537;-89
2021/08/23 06:29:19;;;;;;;4.78;1.90;;;17.30;99.90;;;;;;5079219;28;20043;-89
2021/08/23 06:31:45;;;;;;;7.47;1.60;;;17.30;99.90;;;;;;5079166;28;20024;-89
2021/08/23 06:34:10;;;;;;;5.38;1.40;;;17.40;99.90;;;;;;5078781;28;20020;-89
2021/08/23 06:36:36;;;;;;;3.28;1.55;;;17.50;99.90;;;;;;5080766;28;20024;-89
2021/08/23 06:39:03;;;;;;;9.38;1.83;;;17.50;99.90;;;;;;5081832;28;20095;-89
2021/08/23 06:41:28;;;;;;;4.38;1.58;;;17.50;99.90;;;;;;5100984;28;20376;-89
2021/08/23 06:43:55;;;;;;;4.10;1.63;;;17.60;99.90;;;;;;5082792;28;20024;-89
2021/08/23 06:46:47;;;;;;;2.55;1.60;;;17.60;99.90;;;;;;5081474;28;20028;-88
2021/08/23 06:52:37;;;;;;;5.15;1.55;;;17.80;99.90;;;;;;5093704;28;20078;-87
2021/08/23 07:01:15;;;;;;;5.45;1.30;;;17.60;99.90;;;;;;5098414;28;20050;-88
2021/08/23 07:07:06;;;;;;;4.05;1.60;;;17.50;99.90;;;;;;5097946;28;20088;-87
2021/08/23 07:12:54;;;;;;;7.53;1.77;;;17.50;99.90;;;;;;5098398;28;20544;-87
2021/08/23 07:15:22;;;;;;;5.63;1.63;;;17.60;99.90;;;;;;5080577;28;20020;-87
2021/08/23 07:17:57;;;;;;;7.90;2.00;;;17.40;99.90;;;;;;5097265;28;20027;-86
2021/08/23 07:20:23;;;;;;;3.50;1.60;;;17.40;99.90;;;;;;5063232;28;20058;-87
2021/08/23 07:26:11;;;;;;;4.20;1.95;;;17.80;99.90;;;;;;5096700;28;20558;-85
2021/08/23 07:28:37;;;;;;;11.93;1.92;;;17.80;99.90;;;;;;5078203;28;20032;-86
2021/08/23 07:31:05;;;;;;;8.55;1.90;;;17.90;99.90;;;;;;5077951;28;20077;-87
2021/08/23 07:36:53;;;;;;;7.38;1.92;;;17.80;99.90;;;;;;5098413;28;20019;-87
2021/08/23 07:39:18;;;;;;;7.22;2.05;;;17.90;99.90;;;;;;5095728;28;20472;-87
2021/08/23 07:41:45;;;;;;;3.38;1.65;;;18.10;99.90;;;;;;5095418;28;20028;-85
2021/08/23 07:44:10;;;;;;;4.65;1.45;;;18.40;99.90;;;;;;5077238;28;20066;-85
2021/08/23 07:46:37;;;;;;;4.68;1.60;;;18.80;99.90;;;;;;5077193;28;20024;-87
2021/08/23 07:49:03;;;;;;;4.20;1.80;;;18.80;99.90;;;;;;5077222;28;20031;-85
2021/08/23 07:51:29;;;;;;;5.75;1.85;;;18.70;99.90;;;;;;5076998;28;20028;-86
2021/08/23 07:53:54;;;;;;;3.05;1.58;;;18.80;99.90;;;;;;5076880;28;20044;-85
2021/08/23 07:56:20;;;;;;;6.82;1.52;;;18.90;99.90;;;;;;5077211;28;20024;-86
2021/08/23 07:58:46;;;;;;;11.25;2.05;;;18.80;99.90;;;;;;5077119;28;20101;-86
2021/08/23 08:01:11;;;;;;;3.63;1.60;;;18.90;99.90;;;;;;5077337;28;20031;-86
2021/08/23 08:03:38;;;;;;;2.67;1.60;;;18.90;99.90;;;;;;5094997;28;20026;-86
2021/08/23 08:06:04;;;;;;;5.88;1.98;;;18.60;99.90;;;;;;5094952;28;20471;-86
2021/08/23 08:08:29;;;;;;;9.13;1.77;;;18.80;99.90;;;;;;5076686;28;20069;-86
2021/08/23 08:10:58;;;;;;;4.93;1.60;;;18.90;99.90;;;;;;5094940;28;20024;-86
2021/08/23 08:13:25;;;;;;;4.97;1.70;;;19.20;99.90;;;;;;5076596;28;20024;-86
2021/08/23 08:15:52;;;;;;;6.20;1.85;;;19.20;99.90;;;;;;5077070;28;20450;-86
2021/08/23 08:18:18;;;;;;;3.67;1.85;;;19.20;99.90;;;;;;5077773;28;20439;-86
2021/08/23 08:20:45;;;;;;;4.93;1.60;;;19.40;99.90;;;;;;5076827;28;20076;-86
2021/08/23 08:23:11;;;;;;;2.97;1.45;;;19.60;99.90;;;;;;5094720;28;20024;-86
2021/08/23 08:25:36;;;;;;;4.22;1.73;;;19.50;99.90;;;;;;5076541;28;20024;-86
2021/08/23 08:28:03;;;;;;;4.47;1.60;;;19.50;99.90;;;;;;5075855;28;20391;-86
2021/08/23 08:30:32;;;;;;;4.28;1.58;;;19.60;99.90;;;;;;5077157;28;20432;-86
2021/08/23 08:32:57;;;;;;;3.08;1.50;;;19.60;99.90;;;;;;5076499;28;20024;-86
2021/08/23 08:35:24;;;;;;;5.32;2.08;;;19.60;99.90;;;;;;5076421;28;20032;-84
2021/08/23 08:37:52;;;;;;;3.95;1.70;;;19.60;99.90;;;;;;5076136;28;20020;-84
2021/08/23 08:40:18;;;;;;;3.92;1.25;;;19.40;99.90;;;;;;5076344;28;20025;-86
2021/08/23 08:42:45;;;;;;;3.85;1.75;;;19.50;99.90;;;;;;5076090;28;20027;-85
2021/08/23 08:45:12;;;;;;;3.08;1.33;;;19.60;99.90;;;;;;5076148;28;20434;-86
2021/08/23 08:47:42;;;;;;;6.07;1.95;;;19.50;99.90;;;;;;5076937;28;20024;-87
2021/08/23 08:50:24;;;;;;;3.72;1.83;;;19.40;99.90;;;;;;5080604;28;20441;-85
2021/08/23 08:52:50;;;;;;;4.82;1.58;;;19.50;99.90;;;;;;5080372;28;20056;-86
2021/08/23 08:55:16;;;;;;;2.72;1.88;;;19.40;99.90;;;;;;5079498;28;20062;-85
2021/08/23 09:01:06;;;;;;;5.90;1.90;;;19.20;99.90;;;;;;5094998;28;20023;-87
2021/08/23 09:03:32;;;;;;;6.07;2.03;;;19.20;99.90;;;;;;5075937;28;20446;-87
2021/08/23 09:06:06;;;;;;;2.85;1.88;;;19.10;99.90;;;;;;5075607;28;20056;-88
2021/08/23 09:08:39;;;;;;;3.50;1.80;;;19.00;99.90;;;;;;5075774;28;20105;-87
2021/08/23 09:11:13;;;;;;;6.70;1.88;;;18.90;99.90;;;;;;5075660;28;20028;-87
2021/08/23 09:13:40;;;;;;;2.28;1.35;;;18.80;99.90;;;;;;5075372;28;20028;-87
2021/08/23 09:16:07;;;;;;;4.50;2.00;;;18.70;99.90;;;;;;5075737;28;20034;-87
2021/08/23 09:18:32;;;;;;;4.18;1.70;;;18.70;99.90;;;;;;5075947;28;20020;-87
2021/08/23 09:21:00;;;;;;;5.13;1.85;;;18.80;99.90;;;;;;5075810;28;20535;-87
2021/08/23 09:23:40;;;;;;;4.60;1.83;;;18.80;99.90;;;;;;5075438;28;20024;-87
2021/08/23 09:26:13;;;;;;;3.55;1.70;;;18.80;99.90;;;;;;5093899;28;20451;-87
2021/08/23 09:28:40;;;;;;;4.68;1.95;;;18.70;99.90;;;;;;5075654;28;20031;-87
2021/08/23 09:31:12;;;;;;;5.22;1.75;;;18.60;99.90;;;;;;5075698;28;20430;-87
2021/08/23 09:33:43;;;;;;;3.60;1.75;;;18.60;99.90;;;;;;5075438;28;20025;-88
2021/08/23 09:36:10;;;;;;;3.05;1.63;;;18.60;99.90;;;;;;5075258;28;20027;-87
2021/08/23 09:38:36;;;;;;;4.03;1.58;;;18.60;99.90;;;;;;5075304;28;20567;-87
2021/08/23 09:41:05;;;;;;;2.30;1.60;;;18.70;99.90;;;;;;5075382;28;20028;-87
2021/08/23 09:43:35;;;;;;;5.00;1.73;;;18.90;99.90;;;;;;5075787;28;20063;-87
2021/08/23 09:46:11;;;;;;;3.35;1.60;;;18.90;99.90;;;;;;5075564;28;20024;-86
2021/08/23 09:48:55;;;;;;;3.72;1.70;;;19.00;99.90;;;;;;5094040;28;20023;-86
2021/08/23 09:51:36;;;;;;;;;;;19.00;99.90;;;;;;5094213;28;20404;-87
2021/08/23 09:54:08;;;;;;;4.75;1.60;;;19.00;99.90;;;;;;5059065;28;19936;-87
2021/08/23 09:56:38;;;;;;;2.88;1.67;;;19.20;99.90;;;;;;5052064;28;20057;-87
2021/08/23 09:59:05;;;;;;;4.60;1.75;;;19.20;99.90;;;;;;5051818;28;20119;-87
2021/08/23 10:01:35;;;;;;;3.10;1.58;;;19.10;99.90;;;;;;5051793;28;20059;-87
2021/08/23 10:04:06;;;;;;;3.35;1.70;;;19.20;99.90;;;;;;5051710;28;20063;-86
2021/08/23 10:06:37;;;;;;;4.78;1.83;;;19.40;99.90;;;;;;5035933;28;20032;-86
2021/08/23 10:09:05;;;;;;;4.68;1.80;;;19.60;99.90;;;;;;5051406;28;20083;-86
2021/08/23 10:11:36;;;;;;;4.53;1.80;;;19.70;99.90;;;;;;5052310;28;20491;-83
2021/08/23 10:14:02;;;;;;;5.50;1.75;;;19.80;99.90;;;;;;5051513;28;20021;-84
2021/08/23 10:16:30;;;;;;;3.88;1.60;;;20.00;99.90;;;;;;5052832;28;20087;-84
2021/08/23 10:18:56;;;;;;;4.50;1.65;;;20.00;99.90;;;;;;5051519;28;20048;-84
2021/08/23 10:21:22;;;;;;;6.43;2.35;;;20.20;99.90;;;;;;5052659;28;20058;-84
2021/08/23 10:23:49;;;;;;;4.40;1.73;;;20.30;99.90;;;;;;5051729;28;20029;-84
2021/08/23 10:26:16;;;;;;;4.13;1.70;;;20.30;99.90;;;;;;5051361;28;20028;-84
2021/08/23 10:28:47;;;;;;;3.53;1.73;;;20.20;99.90;;;;;;5051801;28;20033;-83
2021/08/23 10:31:15;;;;;;;5.05;1.70;;;20.30;99.90;;;;;;5051404;28;20397;-83
2021/08/23 10:33:44;;;;;;;6.35;1.67;;;20.20;99.90;;;;;;5052773;28;20031;-83
2021/08/23 10:36:16;;;;;;;6.65;1.80;;;20.20;99.90;;;;;;5051350;28;20028;-85
2021/08/23 10:38:45;;;;;;;2.53;1.60;;;20.20;99.90;;;;;;5051677;28;20025;-83
2021/08/23 10:41:31;;;;;;;2.70;1.40;;;20.40;99.90;;;;;;5054101;28;20542;-86
2021/08/23 10:44:03;;;;;;;3.42;1.75;;;20.40;99.90;;;;;;5050908;28;20112;-84
2021/08/23 10:46:33;;;;;;;3.83;1.98;;;20.50;99.90;;;;;;5051862;28;20025;-84
2021/08/23 10:49:12;;;;;;;4.78;1.90;;;20.60;99.90;;;;;;5051584;28;20052;-84
2021/08/23 10:51:41;;;;;;;5.90;1.55;;;20.60;99.90;;;;;;5052093;28;20025;-84
2021/08/23 10:54:21;;;;;;;4.25;1.70;;;20.70;99.90;;;;;;5055052;28;20095;-86
2021/08/23 10:56:51;;;;;;;4.32;1.65;;;20.70;99.90;;;;;;5061282;28;20048;-83
2021/08/23 10:59:19;;;;;;;5.22;1.73;;;20.90;99.90;;;;;;5073048;28;20108;-83
2021/08/23 11:01:56;;;;;;;4.13;1.70;;;21.00;99.90;;;;;;5064339;28;20086;-84
2021/08/23 11:04:37;;;;;;;4.43;1.98;;;21.00;99.90;;;;;;5055991;28;20037;-84
2021/08/23 11:07:06;;;;;;;2.78;1.45;;;20.90;99.90;;;;;;5055426;28;20052;-84
2021/08/23 11:09:38;;;;;;;3.88;1.70;;;20.60;99.90;;;;;;5054520;28;20040;-84
2021/08/23 11:12:18;;;;;;;5.07;1.77;;;20.40;99.90;;;;;;5054323;28;20021;-84
2021/08/23 11:14:51;;;;;;;5.05;1.98;;;20.40;99.90;;;;;;5054347;28;20053;-84
2021/08/23 11:17:32;;;;;;;3.72;1.60;;;20.20;99.90;;;;;;5055680;28;20112;-84
2021/08/23 11:19:59;;;;;;;4.18;1.65;;;20.30;99.90;;;;;;5054222;28;20013;-84
2021/08/23 11:22:26;;;;;;;4.22;1.80;;;20.20;99.90;;;;;;5054200;28;20484;-84
2021/08/23 11:24:52;;;;;;;4.70;1.83;;;20.30;99.90;;;;;;5054151;28;20029;-84
2021/08/23 11:27:17;;;;;;;5.18;1.92;;;20.20;99.90;;;;;;5054075;28;20032;-84
2021/08/23 11:29:49;;;;;;;2.67;1.60;;;20.30;99.90;;;;;;5054330;28;20488;-83
2021/08/23 11:32:15;;;;;;;6.20;1.73;;;20.10;99.90;;;;;;5053918;28;20029;-84
2021/08/23 11:34:54;;;;;;;3.25;1.75;;;20.00;99.90;;;;;;5054013;28;20104;-83
2021/08/23 11:37:23;;;;;;;7.70;1.90;;;19.70;99.90;;;;;;5053907;28;20017;-83
2021/08/23 11:40:01;;;;;;;5.53;2.28;;;19.60;99.90;;;;;;5055453;28;20492;-83
2021/08/23 11:42:26;;;;;;;6.00;2.35;;;19.60;99.90;;;;;;5053847;28;20021;-83
2021/08/23 11:44:54;;;;;;;4.60;2.15;;;19.70;99.90;;;;;;5053935;28;20543;-82
2021/08/23 11:47:29;;;;;;;4.78;2.10;;;19.70;99.90;;;;;;5053648;28;20025;-82
2021/08/23 11:49:55;;;;;;;2.70;1.90;;;19.80;99.90;;;;;;5053662;28;20025;-82
2021/08/23 11:52:21;;;;;;;6.35;2.35;;;20.00;99.90;;;;;;5053663;28;20025;-82
2021/08/23 11:54:50;;;;;;;5.18;2.20;;;20.10;99.90;;;;;;5053498;28;20049;-81
2021/08/23 11:57:20;;;;;;;2.78;1.67;;;20.20;99.90;;;;;;5054832;28;20392;-82
2021/08/23 11:59:57;;;;;;;2.45;1.50;;;20.60;99.90;;;;;;5053523;28;20025;-83
2021/08/23 12:02:29;;;;;;;2.10;1.30;;;21.10;99.90;;;;;;5054748;28;20033;-83
2021/08/23 12:05:10;;;;;;;1.98;1.30;;;22.40;99.90;;;;;;5053378;28;20025;-82
2021/08/23 12:07:50;;;;;;;2.15;1.30;;;23.90;99.90;;;;;;5054204;28;20457;-83
2021/08/23 12:10:29;;;;;;;2.53;1.42;;;24.90;99.90;;;;;;5054024;28;20120;-83
2021/08/23 12:13:09;;;;;;;2.75;1.40;;;26.00;99.90;;;;;;5054393;28;20021;-82
2021/08/23 12:15:36;;;;;;;3.55;1.77;;;26.20;99.90;;;;;;5053232;28;20023;-82
2021/08/23 12:18:11;;;;;;;2.90;1.65;;;25.50;99.90;;;;;;5054423;28;20107;-82
2021/08/23 12:20:38;;;;;;;6.43;1.88;;;25.30;99.90;;;;;;5054789;28;20025;-83
2021/08/23 12:23:04;;;;;;;2.47;1.27;;;24.90;99.90;;;;;;5053118;28;20029;-83
2021/08/23 12:25:30;;;;;;;4.25;1.50;;;24.80;99.90;;;;;;5053057;28;20047;-82
2021/08/23 12:27:56;;;;;;;3.05;1.45;;;24.40;99.90;;;;;;5053008;28;20061;-82
2021/08/23 12:30:26;;;;;;;2.88;1.50;;;23.60;99.90;;;;;;5054209;28;20025;-82
2021/08/23 12:32:52;;;;;;;3.72;1.60;;;22.70;99.90;;;;;;5052837;28;20103;-82
2021/08/23 12:35:29;;;;;;;2.28;1.50;;;22.10;99.90;;;;;;5052884;28;20504;-82
2021/08/23 12:37:55;;;;;;;4.45;1.38;;;21.80;99.90;;;;;;5052753;28;20029;-82
2021/08/23 12:40:21;;;;;;;3.03;1.42;;;21.60;99.90;;;;;;5052753;28;20025;-82
2021/08/23 12:42:56;;;;;;;2.85;1.38;;;21.40;99.90;;;;;;5053913;28;20029;-83
2021/08/23 12:45:23;;;;;;;4.32;1.40;;;21.20;99.90;;;;;;5052673;28;20120;-83
2021/08/23 12:47:49;;;;;;;3.05;1.60;;;21.10;99.90;;;;;;5052682;28;20063;-83
2021/08/23 12:50:15;;;;;;;3.10;1.58;;;21.20;99.90;;;;;;5052607;28;20400;-82
2021/08/23 12:52:41;;;;;;;1.92;1.20;;;21.30;99.90;;;;;;5055175;28;20614;-82
2021/08/23 12:55:07;;;;;;;5.05;1.50;;;21.40;99.90;;;;;;5075919;28;20060;-82
2021/08/23 12:57:33;;;;;;;3.60;1.50;;;21.30;99.90;;;;;;5075810;28;20119;-82
2021/08/23 12:59:59;;;;;;;4.57;1.50;;;21.30;99.90;;;;;;5075711;28;20458;-82
2021/08/23 13:02:24;;;;;;;2.30;1.48;;;21.30;99.90;;;;;;5075672;28;20028;-83
2021/08/23 13:04:50;;;;;;;2.65;1.35;;;21.50;99.90;;;;;;5075713;28;20028;-83
2021/08/23 13:07:16;;;;;;;2.55;1.35;;;21.60;99.90;;;;;;5078069;28;20032;-82
2021/08/23 13:09:42;;;;;;;2.65;1.20;;;22.10;99.90;;;;;;5081906;28;20032;-83
2021/08/23 13:12:08;;;;;;;2.80;1.48;;;24.00;99.90;;;;;;5077154;28;20082;-84
2021/08/23 13:14:34;;;;;;;2.40;1.30;;;24.80;99.90;;;;;;5075676;28;20027;-84
2021/08/23 13:17:00;;;;;;;1.73;1.30;;;26.00;99.90;;;;;;5075698;28;20539;-83